createdAt,value
2023-03-11T00:01:53.965Z,0.60
2023-03-11T00:04:21.536Z,0.70
2023-03-11T00:06:48.814Z,0.90
2023-03-11T00:09:16.151Z,0.80
2023-03-11T00:11:43.813Z,0.57
2023-03-11T00:14:11.127Z,0.50
2023-03-11T00:16:38.480Z,0.80
2023-03-11T00:19:05.820Z,0.63
2023-03-11T00:21:33.538Z,0.55
2023-03-11T00:24:03.703Z,1.20
2023-03-11T00:26:31.437Z,0.60
2023-03-11T00:28:58.766Z,0.63
2023-03-11T00:31:26.660Z,0.90
2023-03-11T00:33:57.156Z,0.88
2023-03-11T00:36:31.697Z,0.88
2023-03-11T00:39:02.003Z,0.65
2023-03-11T00:41:29.453Z,0.70
2023-03-11T00:43:56.682Z,0.88
2023-03-11T00:46:24.129Z,0.80
2023-03-11T00:48:52.110Z,0.70
2023-03-11T00:51:20.152Z,0.52
2023-03-11T00:53:47.643Z,0.70
2023-03-11T00:56:16.383Z,0.50
2023-03-11T00:58:45.890Z,1.02
2023-03-11T01:01:19.829Z,0.50
2023-03-11T01:03:47.871Z,0.50
2023-03-11T01:06:15.703Z,0.68
2023-03-11T01:08:43.061Z,0.60
2023-03-11T01:11:10.981Z,0.82
2023-03-11T01:13:40.349Z,0.50
2023-03-11T01:16:09.352Z,0.77
2023-03-11T01:18:36.706Z,0.60
2023-03-11T01:21:04.341Z,0.63
2023-03-11T01:23:32.930Z,0.70
2023-03-11T01:26:00.236Z,0.68
2023-03-11T01:28:27.947Z,0.63
2023-03-11T01:30:55.732Z,0.60
2023-03-11T01:33:23.551Z,0.70
2023-03-11T01:35:50.875Z,0.70
2023-03-11T01:38:18.797Z,0.70
2023-03-11T01:40:49.675Z,0.60
2023-03-11T01:43:42.997Z,0.57
2023-03-11T01:46:17.324Z,0.70
2023-03-11T01:48:56.973Z,0.85
2023-03-11T01:51:48.712Z,0.57
2023-03-11T01:54:24.108Z,0.60
2023-03-11T01:56:53.567Z,0.80
2023-03-11T01:59:53.614Z,0.63
2023-03-11T02:02:32.034Z,0.57
2023-03-11T02:05:02.277Z,0.90
2023-03-11T02:07:30.290Z,0.80
2023-03-11T02:09:58.013Z,0.65
2023-03-11T02:12:25.609Z,0.60
2023-03-11T02:14:54.640Z,0.80
2023-03-11T02:17:22.400Z,0.82
2023-03-11T02:20:04.338Z,0.47
2023-03-11T02:22:33.617Z,0.70
2023-03-11T02:25:10.674Z,0.73
2023-03-11T02:27:41.428Z,1.00
2023-03-11T02:30:13.223Z,0.80
2023-03-11T02:32:44.300Z,0.73
2023-03-11T02:35:12.388Z,0.60
2023-03-11T02:37:45.427Z,0.50
2023-03-11T02:40:27.196Z,0.68
2023-03-11T02:42:59.748Z,0.68
2023-03-11T02:45:29.964Z,0.70
2023-03-11T02:47:59.790Z,0.77
2023-03-11T02:50:30.590Z,0.70
2023-03-11T02:52:58.313Z,0.60
2023-03-11T02:55:25.572Z,0.70
2023-03-11T02:57:52.947Z,0.68
2023-03-11T03:00:21.153Z,0.40
2023-03-11T03:02:57.787Z,0.80
2023-03-11T03:05:26.598Z,0.70
2023-03-11T03:07:54.013Z,0.57
2023-03-11T03:10:22.684Z,0.90
2023-03-11T03:12:51.275Z,0.43
2023-03-11T03:15:19.124Z,0.90
2023-03-11T03:17:46.933Z,0.47
2023-03-11T03:20:14.826Z,0.50
2023-03-11T03:22:47.717Z,0.57
2023-03-11T03:25:18.559Z,0.52
2023-03-11T03:27:46.988Z,0.50
2023-03-11T03:30:15.568Z,0.47
2023-03-11T03:32:43.632Z,0.57
2023-03-11T03:35:13.862Z,0.40
2023-03-11T03:38:13.833Z,0.38
2023-03-11T03:40:47.499Z,0.40
2023-03-11T03:43:17.769Z,0.40
2023-03-11T03:45:55.128Z,0.40
2023-03-11T03:48:23.267Z,0.43
2023-03-11T03:50:50.930Z,0.52
2023-03-11T03:53:19.780Z,0.65
2023-03-11T03:55:49.810Z,0.40
2023-03-11T03:58:17.932Z,0.50
2023-03-11T04:00:45.710Z,0.70
2023-03-11T04:03:13.342Z,0.50
2023-03-11T04:05:50.657Z,0.60
2023-03-11T04:08:18.380Z,0.50
2023-03-11T04:10:57.268Z,0.65
2023-03-11T04:13:24.920Z,0.70
2023-03-11T04:15:52.198Z,0.50
2023-03-11T04:18:22.763Z,0.60
2023-03-11T04:20:50.692Z,0.55
2023-03-11T04:23:17.996Z,0.70
2023-03-11T04:25:45.355Z,0.57
2023-03-11T04:28:13.405Z,0.60
2023-03-11T04:30:41.509Z,0.40
2023-03-11T04:33:08.913Z,0.50
2023-03-11T04:35:38.905Z,0.50
2023-03-11T04:38:07.736Z,0.88
2023-03-11T04:40:37.569Z,0.82
2023-03-11T04:43:05.440Z,0.70
2023-03-11T04:45:33.629Z,0.50
2023-03-11T04:48:03.409Z,0.50
2023-03-11T04:50:32.310Z,0.40
2023-03-11T04:53:00.054Z,0.60
2023-03-11T04:55:27.707Z,0.55
2023-03-11T04:57:55.090Z,0.60
2023-03-11T05:00:24.949Z,0.50
2023-03-11T05:03:00.676Z,0.70
2023-03-11T05:05:28.822Z,0.60
2023-03-11T05:07:56.589Z,0.50
2023-03-11T05:10:24.350Z,0.60
2023-03-11T05:12:55.756Z,0.50
2023-03-11T05:15:26.854Z,0.70
2023-03-11T05:17:54.353Z,0.47
2023-03-11T05:20:22.046Z,0.60
2023-03-11T05:22:49.539Z,0.60
2023-03-11T05:25:17.263Z,0.60
2023-03-11T05:27:45.329Z,0.63
2023-03-11T05:30:15.366Z,0.70
2023-03-11T05:32:44.753Z,0.60
2023-03-11T05:35:12.908Z,0.60
2023-03-11T05:37:41.142Z,0.52
2023-03-11T05:40:12.167Z,0.77
2023-03-11T05:42:41.291Z,0.63
2023-03-11T05:45:10.644Z,0.80
2023-03-11T05:47:42.167Z,0.77
2023-03-11T05:50:12.804Z,0.80
2023-03-11T05:52:41.913Z,0.60
2023-03-11T05:55:11.457Z,0.60
2023-03-11T05:57:40.763Z,0.63
2023-03-11T06:00:12.720Z,0.85
2023-03-11T06:02:47.619Z,0.40
2023-03-11T06:05:17.902Z,0.82
2023-03-11T06:07:47.294Z,0.60
2023-03-11T06:10:15.181Z,0.70
2023-03-11T06:12:43.238Z,0.50
2023-03-11T06:15:29.453Z,0.60
2023-03-11T06:17:56.834Z,0.70
2023-03-11T06:20:24.839Z,0.60
2023-03-11T06:22:52.764Z,0.85
2023-03-11T06:25:23.661Z,0.63
2023-03-11T06:27:53.359Z,0.77
2023-03-11T06:30:22.001Z,0.60
2023-03-11T06:32:57.254Z,0.65
2023-03-11T06:35:24.842Z,0.70
2023-03-11T06:37:52.666Z,0.60
2023-03-11T06:40:20.348Z,0.40
2023-03-11T06:42:47.853Z,0.50
2023-03-11T06:45:15.547Z,0.50
2023-03-11T06:47:44.498Z,0.60
2023-03-11T06:50:12.202Z,0.65
2023-03-11T06:52:40.158Z,0.43
2023-03-11T06:55:09.210Z,0.30
2023-03-11T06:57:37.452Z,0.55
2023-03-11T07:00:12.261Z,0.30
2023-03-11T07:02:41.478Z,0.50
2023-03-11T07:05:10.316Z,1.33
2023-03-11T07:07:38.182Z,0.65
2023-03-11T07:10:06.498Z,0.60
2023-03-11T07:12:33.826Z,0.70
2023-03-11T07:15:04.329Z,0.60
2023-03-11T07:17:34.018Z,0.45
2023-03-11T07:20:03.277Z,1.00
2023-03-11T07:22:30.664Z,0.63
2023-03-11T07:24:57.996Z,0.82
2023-03-11T07:27:28.078Z,0.80
2023-03-11T07:29:55.383Z,0.90
2023-03-11T07:32:22.746Z,1.10
2023-03-11T07:34:50.038Z,0.90
2023-03-11T07:37:17.785Z,0.70
2023-03-11T07:39:45.289Z,1.02
2023-03-11T07:42:12.614Z,0.68
2023-03-11T07:44:40.429Z,0.90
2023-03-11T07:47:07.705Z,0.70
2023-03-11T07:49:38.062Z,0.55
2023-03-11T07:52:05.699Z,0.60
2023-03-11T07:54:32.939Z,0.60
2023-03-11T07:57:01.204Z,0.50
2023-03-11T07:59:29.102Z,0.50
2023-03-11T08:01:57.158Z,0.50
2023-03-11T08:04:24.610Z,0.40
2023-03-11T08:06:52.379Z,0.40
2023-03-11T08:09:19.655Z,0.60
2023-03-11T08:11:49.478Z,0.50
2023-03-11T08:14:17.178Z,0.47
2023-03-11T08:16:44.453Z,0.80
2023-03-11T08:19:13.462Z,0.50
2023-03-11T08:21:41.343Z,0.50
2023-03-11T08:24:12.504Z,0.30
2023-03-11T08:26:40.953Z,0.50
2023-03-11T08:29:08.560Z,0.60
2023-03-11T08:31:36.051Z,0.30
2023-03-11T08:34:09.464Z,0.50
2023-03-11T08:36:36.805Z,0.50
2023-03-11T08:39:04.301Z,0.57
2023-03-11T08:41:31.674Z,0.80
2023-03-11T08:43:59.284Z,0.60
2023-03-11T08:46:31.965Z,0.70
2023-03-11T08:49:01.473Z,0.60
2023-03-11T08:51:31.951Z,0.55
2023-03-11T08:54:00.402Z,0.47
2023-03-11T08:56:28.584Z,0.70
2023-03-11T08:58:55.866Z,0.50
2023-03-11T09:01:24.049Z,0.43
2023-03-11T09:03:52.626Z,0.50
2023-03-11T09:06:22.176Z,0.52
2023-03-11T09:08:50.153Z,0.70
2023-03-11T09:11:18.771Z,0.65
2023-03-11T09:13:46.030Z,0.60
2023-03-11T09:16:20.445Z,0.57
2023-03-11T09:18:48.335Z,0.30
2023-03-11T09:21:15.828Z,0.70
2023-03-11T09:23:44.537Z,0.50
2023-03-11T09:26:12.520Z,0.68
2023-03-11T09:28:41.455Z,0.75
2023-03-11T09:31:09.611Z,1.10
2023-03-11T09:33:39.159Z,0.80
2023-03-11T09:36:07.574Z,0.60
2023-03-11T09:38:34.878Z,0.90
2023-03-11T09:41:13.337Z,0.90
2023-03-11T09:44:08.639Z,0.30
2023-03-11T09:47:06.667Z,0.40
2023-03-11T09:50:40.406Z,0.65
2023-03-11T09:53:23.817Z,0.30
2023-03-11T09:56:01.431Z,0.47
2023-03-11T09:58:39.424Z,0.22
2023-03-11T10:01:16.341Z,0.60
2023-03-11T10:03:45.096Z,0.60
2023-03-11T10:06:14.808Z,0.50
2023-03-11T10:09:13.404Z,0.70
2023-03-11T10:11:51.267Z,0.57
2023-03-11T10:14:33.526Z,0.60
2023-03-11T10:17:14.586Z,0.65
2023-03-11T10:19:55.301Z,1.30
2023-03-11T10:22:34.414Z,0.98
2023-03-11T10:25:15.022Z,0.57
2023-03-11T10:27:48.254Z,0.50
2023-03-11T10:30:36.948Z,0.57
2023-03-11T10:33:27.381Z,0.52
2023-03-11T10:35:58.686Z,0.90
2023-03-11T10:38:32.304Z,0.63
2023-03-11T10:41:11.363Z,0.57
2023-03-11T10:43:47.465Z,0.60
2023-03-11T10:46:20.693Z,0.60
2023-03-11T10:48:47.991Z,1.67
2023-03-11T10:51:22.730Z,0.60
2023-03-11T10:53:55.979Z,0.60
2023-03-11T10:56:32.819Z,0.70
2023-03-11T10:59:01.555Z,0.70
2023-03-11T11:01:30.009Z,0.73
2023-03-11T11:04:00.818Z,0.90
2023-03-11T11:06:33.774Z,0.60
2023-03-11T11:09:22.427Z,1.00
2023-03-11T11:12:11.952Z,0.50
2023-03-11T11:14:50.710Z,0.55
2023-03-11T11:17:29.129Z,1.13
2023-03-11T11:19:59.074Z,0.68
2023-03-11T11:22:28.175Z,0.90
2023-03-11T11:24:56.626Z,1.30
2023-03-11T11:27:26.346Z,0.70
2023-03-11T11:30:08.980Z,0.65
2023-03-11T11:32:37.266Z,0.60
2023-03-11T11:35:07.833Z,0.60
2023-03-11T11:37:38.802Z,0.60
2023-03-11T11:40:15.799Z,0.40
2023-03-11T11:42:54.102Z,0.50
2023-03-11T11:45:34.421Z,0.50
2023-03-11T11:48:12.492Z,0.40
2023-03-11T11:50:52.151Z,0.30
2023-03-11T11:53:28.681Z,0.40
2023-03-11T11:55:56.805Z,0.40
2023-03-11T11:58:24.338Z,0.40
2023-03-11T12:01:04.176Z,0.40
2023-03-11T12:03:52.965Z,0.30
2023-03-11T12:06:28.140Z,0.40
2023-03-11T12:09:24.411Z,0.35
2023-03-11T12:12:13.280Z,0.35
2023-03-11T12:14:54.718Z,0.43
2023-03-11T12:17:26.041Z,0.30
2023-03-11T12:19:59.679Z,0.30
2023-03-11T12:22:36.538Z,0.30
2023-03-11T12:25:22.255Z,0.43
2023-03-11T12:28:16.770Z,0.30
2023-03-11T12:31:03.400Z,0.20
2023-03-11T12:33:39.907Z,0.30
2023-03-11T12:36:20.522Z,0.30
2023-03-11T12:38:49.410Z,0.30
2023-03-11T12:41:42.888Z,0.35
2023-03-11T12:44:40.143Z,0.32
2023-03-11T12:47:08.043Z,0.30
2023-03-11T12:49:41.672Z,0.30
2023-03-11T12:52:13.251Z,0.30
2023-03-11T12:57:17.224Z,0.30
2023-03-11T12:59:56.898Z,0.10
2023-03-11T13:02:36.881Z,0.25
2023-03-11T13:05:51.303Z,0.20
2023-03-11T13:08:24.238Z,0.30
2023-03-11T13:10:53.858Z,0.30
2023-03-11T13:13:30.931Z,0.40
2023-03-11T13:16:10.961Z,0.10
2023-03-11T13:18:39.709Z,0.10
2023-03-11T13:21:28.659Z,0.40
2023-03-11T13:24:26.051Z,0.30
2023-03-11T13:27:04.910Z,0.30
2023-03-11T13:29:55.634Z,0.22
2023-03-11T13:32:27.142Z,0.30
2023-03-11T13:35:16.423Z,0.30
2023-03-11T13:38:13.204Z,0.50
2023-03-11T13:40:45.165Z,0.30
2023-03-11T13:43:25.496Z,0.50
2023-03-11T13:46:05.879Z,0.35
2023-03-11T13:48:42.080Z,0.20
2023-03-11T13:51:21.758Z,0.43
2023-03-11T13:53:59.646Z,0.20
2023-03-11T13:56:29.484Z,0.20
2023-03-11T13:59:16.098Z,0.40
2023-03-11T14:01:51.593Z,0.20
2023-03-11T14:04:27.112Z,0.30
2023-03-11T14:06:54.936Z,0.35
2023-03-11T14:09:24.327Z,0.35
2023-03-11T14:11:54.607Z,0.52
2023-03-11T14:14:40.165Z,0.40
2023-03-11T14:17:15.820Z,0.40
2023-03-11T14:19:43.945Z,0.30
2023-03-11T14:22:11.295Z,0.30
2023-03-11T14:24:39.837Z,0.30
2023-03-11T14:27:10.281Z,0.38
2023-03-11T14:29:40.129Z,0.30
2023-03-11T14:32:26.525Z,0.32
2023-03-11T14:34:54.454Z,0.30
2023-03-11T14:37:38.341Z,0.40
2023-03-11T14:40:31.004Z,0.30
2023-03-11T14:43:03.828Z,0.30
2023-03-11T14:45:33.908Z,0.30
2023-03-11T14:48:01.399Z,0.30
2023-03-11T14:50:35.199Z,0.50
2023-03-11T14:53:08.810Z,0.28
2023-03-11T14:55:56.449Z,0.22
2023-03-11T14:58:37.649Z,0.20
2023-03-11T15:03:50.388Z,0.30
2023-03-11T15:08:55.313Z,0.30
2023-03-11T15:11:28.354Z,0.30
2023-03-11T15:14:16.935Z,0.22
2023-03-11T15:16:44.706Z,0.28
2023-03-11T15:19:21.500Z,0.38
2023-03-11T15:21:50.936Z,0.25
2023-03-11T15:24:22.142Z,0.38
2023-03-11T15:27:30.931Z,0.10
2023-03-11T15:30:00.642Z,0.40
2023-03-11T15:32:42.850Z,0.30
2023-03-11T15:35:13.255Z,0.30
2023-03-11T15:37:42.410Z,0.30
2023-03-11T15:40:26.150Z,0.30
2023-03-11T15:43:15.888Z,0.20
2023-03-11T15:45:44.410Z,0.30
2023-03-11T15:48:13.931Z,0.40
2023-03-11T15:50:58.659Z,0.50
2023-03-11T15:53:28.166Z,0.30
2023-03-11T15:56:07.389Z,0.20
2023-03-11T15:58:38.271Z,0.30
2023-03-11T16:01:06.237Z,0.35
2023-03-11T16:03:34.055Z,0.20
2023-03-11T16:06:01.335Z,0.30
2023-03-11T16:08:29.014Z,0.40
2023-03-11T16:10:58.119Z,0.40
2023-03-11T16:13:25.577Z,0.17
2023-03-11T16:15:53.388Z,0.30
2023-03-11T16:18:20.726Z,0.30
2023-03-11T16:20:51.733Z,0.25
2023-03-11T16:25:56.266Z,0.30
2023-03-11T16:28:23.600Z,0.40
2023-03-11T16:30:51.263Z,0.50
2023-03-11T16:33:18.868Z,0.28
2023-03-11T16:35:46.427Z,0.30
2023-03-11T16:38:14.174Z,0.30
2023-03-11T16:40:41.698Z,0.40
2023-03-11T16:43:11.326Z,0.40
2023-03-11T16:45:38.569Z,0.65
2023-03-11T16:48:07.149Z,0.40
2023-03-11T16:50:36.975Z,0.32
2023-03-11T16:53:05.426Z,0.50
2023-03-11T16:55:32.605Z,0.40
2023-03-11T16:57:59.722Z,0.30
2023-03-11T17:00:27.115Z,0.50
2023-03-11T17:02:54.524Z,0.50
2023-03-11T17:05:21.888Z,0.30
2023-03-11T17:07:53.403Z,0.85
2023-03-11T17:10:23.770Z,0.30
2023-03-11T17:12:51.472Z,0.30
2023-03-11T17:15:19.317Z,0.40
2023-03-11T17:17:47.294Z,0.38
2023-03-11T17:20:14.561Z,0.40
2023-03-11T17:22:41.826Z,0.75
2023-03-11T17:25:09.793Z,0.30
2023-03-11T17:27:37.612Z,0.38
2023-03-11T17:30:06.422Z,0.50
2023-03-11T17:32:33.800Z,0.50
2023-03-11T17:35:01.417Z,0.50
2023-03-11T17:37:29.250Z,0.57
2023-03-11T17:39:56.953Z,0.65
2023-03-11T17:42:24.864Z,0.60
2023-03-11T17:44:56.283Z,0.75
2023-03-11T17:47:27.536Z,0.65
2023-03-11T17:49:55.325Z,0.70
2023-03-11T17:52:23.164Z,0.93
2023-03-11T17:54:50.595Z,0.65
2023-03-11T17:57:17.887Z,0.60
2023-03-11T17:59:45.768Z,0.90
2023-03-11T18:02:14.184Z,0.73
2023-03-11T18:04:45.805Z,0.88
2023-03-11T18:07:13.148Z,1.40
2023-03-11T18:09:40.596Z,2.55
2023-03-11T18:12:09.013Z,1.63
2023-03-11T18:14:36.737Z,1.92
2023-03-11T18:17:04.646Z,0.82
2023-03-11T18:19:32.076Z,0.98
2023-03-11T18:21:59.873Z,1.30
2023-03-11T18:24:27.150Z,0.93
2023-03-11T18:26:54.975Z,0.90
2023-03-11T18:29:24.329Z,1.10
2023-03-11T18:31:52.212Z,0.85
2023-03-11T18:34:20.077Z,0.93
2023-03-11T18:36:49.103Z,1.00
2023-03-11T18:39:16.891Z,1.00
2023-03-11T18:41:44.216Z,0.80
2023-03-11T18:44:11.671Z,0.98
2023-03-11T18:46:39.128Z,0.60
2023-03-11T18:49:06.452Z,0.80
2023-03-11T18:51:34.483Z,3.13
2023-03-11T18:54:02.600Z,1.35
2023-03-11T18:56:33.215Z,1.10
2023-03-11T18:59:01.420Z,0.90
2023-03-11T19:01:28.951Z,0.93
2023-03-11T19:03:58.799Z,0.80
2023-03-11T19:06:28.358Z,0.80
2023-03-11T19:08:57.785Z,1.15
2023-03-11T19:11:25.763Z,0.98
2023-03-11T19:13:55.619Z,1.02
2023-03-11T19:16:26.271Z,0.90
2023-03-11T19:18:55.209Z,0.80
2023-03-11T19:21:23.279Z,1.10
2023-03-11T19:23:52.848Z,1.30
2023-03-11T19:26:21.046Z,0.90
2023-03-11T19:28:51.105Z,1.02
2023-03-11T19:31:18.469Z,1.20
2023-03-11T19:33:47.020Z,0.90
2023-03-11T19:36:15.071Z,1.15
2023-03-11T19:38:43.005Z,1.40
2023-03-11T19:41:18.410Z,1.45
2023-03-11T19:43:47.179Z,1.60
2023-03-11T19:46:20.462Z,1.58
2023-03-11T19:48:48.729Z,2.05
2023-03-11T19:51:17.279Z,1.95
2023-03-11T19:53:45.436Z,1.73
2023-03-11T19:56:13.054Z,1.55
2023-03-11T19:58:42.673Z,1.45
2023-03-11T20:01:21.024Z,1.60
2023-03-11T20:03:48.385Z,1.35
2023-03-11T20:06:18.374Z,1.60
2023-03-11T20:08:46.473Z,1.75
2023-03-11T20:11:13.753Z,1.40
2023-03-11T20:13:43.969Z,1.35
2023-03-11T20:16:16.062Z,2.10
2023-03-11T20:18:45.947Z,1.63
2023-03-11T20:21:14.255Z,1.20
2023-03-11T20:23:41.597Z,1.30
2023-03-11T20:26:19.104Z,1.50
2023-03-11T20:28:47.084Z,1.27
2023-03-11T20:31:20.286Z,1.23
2023-03-11T20:33:49.200Z,1.40
2023-03-11T20:36:22.625Z,1.25
2023-03-11T20:38:54.585Z,1.33
2023-03-11T20:41:24.430Z,1.45
2023-03-11T20:43:53.843Z,1.70
2023-03-11T20:46:21.806Z,2.20
2023-03-11T20:48:49.226Z,3.30
2023-03-11T20:51:20.280Z,3.88
2023-03-11T20:53:48.144Z,3.22
2023-03-11T20:56:24.234Z,2.65
2023-03-11T20:58:55.756Z,12.13
2023-03-11T21:01:27.321Z,14.77
2023-03-11T21:03:56.969Z,13.18
2023-03-11T21:06:29.904Z,15.38
2023-03-11T21:09:00.223Z,17.60
2023-03-11T21:11:28.335Z,20.80
2023-03-11T21:13:56.028Z,21.33
2023-03-11T21:16:23.880Z,22.98
2023-03-11T21:18:52.019Z,25.42
2023-03-11T21:21:20.261Z,25.02
2023-03-11T21:23:49.137Z,25.85
2023-03-11T21:26:17.608Z,25.45
2023-03-11T21:28:46.666Z,26.27
2023-03-11T21:31:18.053Z,27.38
2023-03-11T21:33:46.467Z,27.08
2023-03-11T21:36:16.026Z,24.85
2023-03-11T21:38:44.415Z,25.00
2023-03-11T21:41:26.349Z,26.42
2023-03-11T21:43:55.445Z,27.58
2023-03-11T21:46:25.478Z,26.50
2023-03-11T21:48:53.438Z,26.95
2023-03-11T21:51:22.111Z,27.95
2023-03-11T21:53:49.886Z,26.70
2023-03-11T21:56:17.938Z,29.05
2023-03-11T21:58:46.009Z,29.90
2023-03-11T22:01:14.193Z,30.15
2023-03-11T22:03:42.331Z,30.85
2023-03-11T22:06:12.728Z,32.10
2023-03-11T22:08:41.058Z,33.17
2023-03-11T22:11:10.579Z,32.40
2023-03-11T22:13:38.190Z,32.58
2023-03-11T22:16:06.854Z,33.40
2023-03-11T22:18:35.014Z,33.00
2023-03-11T22:21:02.487Z,32.75
2023-03-11T22:23:30.304Z,34.03
2023-03-11T22:25:58.154Z,34.03
2023-03-11T22:28:25.992Z,38.17
2023-03-11T22:30:54.595Z,34.35
2023-03-11T22:33:21.932Z,34.97
2023-03-11T22:35:57.377Z,34.47
2023-03-11T22:38:24.988Z,32.17
2023-03-11T22:40:52.287Z,32.28
2023-03-11T22:43:19.875Z,31.95
2023-03-11T22:45:47.640Z,32.17
2023-03-11T22:48:15.255Z,32.60
2023-03-11T22:50:44.473Z,31.60
2023-03-11T22:53:12.915Z,32.78
2023-03-11T22:55:41.797Z,32.78
2023-03-11T22:58:09.221Z,34.35
2023-03-11T23:00:37.031Z,35.20
2023-03-11T23:03:04.492Z,33.47
2023-03-11T23:05:32.452Z,34.30
2023-03-11T23:07:59.758Z,37.22
2023-03-11T23:10:27.517Z,38.03
2023-03-11T23:12:54.881Z,36.70
2023-03-11T23:15:22.279Z,37.13
2023-03-11T23:17:50.127Z,38.33
2023-03-11T23:20:17.747Z,40.03
2023-03-11T23:22:45.515Z,39.28
2023-03-11T23:25:16.504Z,37.83
2023-03-11T23:27:45.351Z,36.53
2023-03-11T23:30:16.494Z,38.92
2023-03-11T23:32:44.655Z,38.63
2023-03-11T23:35:12.690Z,38.72
2023-03-11T23:37:39.988Z,38.00
2023-03-11T23:40:09.462Z,36.80
2023-03-11T23:42:36.710Z,36.58
2023-03-11T23:45:05.159Z,35.95
2023-03-11T23:47:32.965Z,33.38
2023-03-11T23:50:00.271Z,33.55
2023-03-11T23:52:27.597Z,32.90
2023-03-11T23:54:55.705Z,32.97
2023-03-11T23:57:23.469Z,31.92
2023-03-11T23:59:51.949Z,31.20
